NKS1825 KFLL-KMCO
Flight info
| Callsign | NKS1825 |
|---|---|
| Flight time | 0h 33m |
| Altitude | 35000 |
| Route | FRSBE2 WAPOM MUNGI1 |
| Aircraft | A320/M-SDE3FGHIRWY/LB1 |
Departure
| Time | 2026-05-03 23:44 |
|---|---|
| Airport | Fort Lauderdale Hollywood International Airport (KFLL) |
Arrival
| Time | 2026-05-04 00:17 |
|---|---|
| Airport | Orlando International Airport (KMCO) |
| Time | Latitude | Longitude | Altitude | Speed | Heading |
|---|---|---|---|---|---|
| 2026-05-03 22:47 | 26.06885 | -80.14552 | 17 ft | 0 kts | 21° |
| 2026-05-03 22:56 | 26.06885 | -80.14553 | 17 ft | 1 kts | 21° |
| 2026-05-03 22:56 | 26.06863 | -80.14564 | 19 ft | 4 kts | 30° |
| 2026-05-03 22:56 | 26.06840 | -80.14580 | 18 ft | 4 kts | 33° |
| 2026-05-03 22:57 | 26.06820 | -80.14591 | 16 ft | 4 kts | 335° |
| 2026-05-03 22:57 | 26.06816 | -80.14589 | 16 ft | 3 kts | 317° |
| 2026-05-03 23:04 | 26.06854 | -80.14629 | 17 ft | 17 kts | 317° |
| 2026-05-03 23:04 | 26.06920 | -80.14699 | 20 ft | 1 kts | 316° |
| 2026-05-03 23:05 | 26.06936 | -80.14718 | 19 ft | 6 kts | 307° |
| 2026-05-03 23:05 | 26.06925 | -80.14784 | 21 ft | 11 kts | 235° |
| 2026-05-03 23:05 | 26.06909 | -80.14879 | 20 ft | 15 kts | 270° |
| 2026-05-03 23:05 | 26.06910 | -80.15008 | 23 ft | 18 kts | 270° |
| 2026-05-03 23:06 | 26.06880 | -80.15127 | 24 ft | 17 kts | 204° |
| 2026-05-03 23:06 | 26.06771 | -80.15127 | 25 ft | 0 kts | 179° |
| 2026-05-03 23:06 | 26.06767 | -80.15127 | 25 ft | 4 kts | 180° |
| 2026-05-03 23:06 | 26.06702 | -80.15159 | 24 ft | 14 kts | 234° |
| 2026-05-03 23:07 | 26.06694 | -80.15274 | 26 ft | 17 kts | 272° |
| 2026-05-03 23:07 | 26.06697 | -80.15408 | 30 ft | 16 kts | 270° |
| 2026-05-03 23:07 | 26.06697 | -80.15526 | 25 ft | 10 kts | 270° |
| 2026-05-03 23:07 | 26.06697 | -80.15538 | 24 ft | 0 kts | 270° |
| 2026-05-03 23:11 | 26.06697 | -80.15542 | 24 ft | 2 kts | 270° |
| 2026-05-03 23:11 | 26.06697 | -80.15568 | 24 ft | 3 kts | 270° |
| 2026-05-03 23:11 | 26.06696 | -80.15581 | 24 ft | 0 kts | 270° |
| 2026-05-03 23:13 | 26.06696 | -80.15588 | 24 ft | 3 kts | 270° |
| 2026-05-03 23:13 | 26.06696 | -80.15625 | 24 ft | 6 kts | 269° |
| 2026-05-03 23:13 | 26.06696 | -80.15680 | 23 ft | 7 kts | 271° |
| 2026-05-03 23:14 | 26.06697 | -80.15718 | 23 ft | 3 kts | 271° |
| 2026-05-03 23:14 | 26.06697 | -80.15725 | 23 ft | 0 kts | 271° |
| 2026-05-03 23:18 | 26.06697 | -80.15724 | 23 ft | 0 kts | 271° |
| 2026-05-03 23:35 | 26.06697 | -80.15729 | 23 ft | 2 kts | 271° |
| 2026-05-03 23:36 | 26.06698 | -80.15749 | 23 ft | 3 kts | 271° |
| 2026-05-03 23:36 | 26.06698 | -80.15767 | 23 ft | 0 kts | 271° |
| 2026-05-03 23:41 | 26.06696 | -80.15784 | 22 ft | 4 kts | 255° |
| 2026-05-03 23:41 | 26.06684 | -80.15806 | 23 ft | 0 kts | 231° |
| 2026-05-03 23:42 | 26.06684 | -80.15807 | 23 ft | 1 kts | 231° |
| 2026-05-03 23:43 | 26.06643 | -80.15821 | 20 ft | 10 kts | 180° |
| 2026-05-03 23:43 | 26.06594 | -80.15768 | 22 ft | 10 kts | 107° |
| 2026-05-03 23:43 | 26.06589 | -80.15695 | 23 ft | 10 kts | 91° |
| 2026-05-03 23:43 | 26.06590 | -80.15474 | 25 ft | 63 kts | 89° |
| 2026-05-03 23:44 | 26.06585 | -80.14668 | 20 ft | 141 kts | 90° |
| 2026-05-03 23:44 | 26.06572 | -80.13393 | 295 ft | 177 kts | 88° |
| 2026-05-03 23:44 | 26.06598 | -80.11970 | 875 ft | 189 kts | 82° |
| 2026-05-03 23:44 | 26.06944 | -80.10482 | 1208 ft | 210 kts | 65° |
| 2026-05-03 23:45 | 26.07692 | -80.08993 | 1572 ft | 232 kts | 56° |
| 2026-05-03 23:45 | 26.08701 | -80.07485 | 2000 ft | 252 kts | 39° |
| 2026-05-03 23:45 | 26.10283 | -80.06585 | 2689 ft | 261 kts | 18° |
| 2026-05-03 23:45 | 26.12017 | -80.05918 | 3498 ft | 267 kts | 18° |
| 2026-05-03 23:46 | 26.13803 | -80.05247 | 3859 ft | 272 kts | 12° |
| 2026-05-03 23:46 | 26.15670 | -80.05006 | 3986 ft | 270 kts | 355° |
| 2026-05-03 23:46 | 26.17504 | -80.05360 | 4003 ft | 266 kts | 339° |
| 2026-05-03 23:46 | 26.19255 | -80.06043 | 4008 ft | 267 kts | 338° |
| 2026-05-03 23:47 | 26.20941 | -80.06887 | 4009 ft | 266 kts | 325° |
| 2026-05-03 23:47 | 26.22335 | -80.08212 | 4012 ft | 263 kts | 309° |
| 2026-05-03 23:47 | 26.23310 | -80.09875 | 4008 ft | 260 kts | 293° |
| 2026-05-03 23:47 | 26.23983 | -80.11735 | 4010 ft | 258 kts | 290° |
| 2026-05-03 23:48 | 26.24644 | -80.13597 | 4008 ft | 259 kts | 290° |
| 2026-05-03 23:48 | 26.25320 | -80.15475 | 4098 ft | 266 kts | 294° |
| 2026-05-03 23:48 | 26.26266 | -80.17263 | 4973 ft | 267 kts | 301° |
| 2026-05-03 23:48 | 26.27269 | -80.19011 | 5886 ft | 268 kts | 300° |
| 2026-05-03 23:49 | 26.28265 | -80.20772 | 6732 ft | 270 kts | 300° |
| 2026-05-03 23:49 | 26.29267 | -80.22553 | 7536 ft | 272 kts | 299° |
| 2026-05-03 23:49 | 26.30278 | -80.24350 | 8359 ft | 274 kts | 299° |
| 2026-05-03 23:49 | 26.31292 | -80.26146 | 9191 ft | 275 kts | 299° |
| 2026-05-03 23:50 | 26.32319 | -80.27959 | 9985 ft | 277 kts | 299° |
| 2026-05-03 23:50 | 26.33004 | -80.29167 | 10363 ft | 284 kts | 299° |
| 2026-05-03 23:50 | 26.34491 | -80.31800 | 10621 ft | 314 kts | 299° |
| 2026-05-03 23:50 | 26.35676 | -80.33896 | 11075 ft | 324 kts | 299° |
| 2026-05-03 23:51 | 26.36890 | -80.36038 | 11713 ft | 328 kts | 299° |
| 2026-05-03 23:51 | 26.38101 | -80.38169 | 12365 ft | 331 kts | 299° |
| 2026-05-03 23:51 | 26.39338 | -80.40347 | 13023 ft | 334 kts | 299° |
| 2026-05-03 23:51 | 26.40585 | -80.42549 | 13689 ft | 337 kts | 299° |
| 2026-05-03 23:52 | 26.41842 | -80.44772 | 14283 ft | 340 kts | 298° |
| 2026-05-03 23:52 | 26.43108 | -80.47014 | 14858 ft | 342 kts | 298° |
| 2026-05-03 23:52 | 26.44377 | -80.49262 | 15436 ft | 344 kts | 298° |
| 2026-05-03 23:52 | 26.45662 | -80.51532 | 16013 ft | 346 kts | 298° |
| 2026-05-03 23:53 | 26.47014 | -80.53773 | 16573 ft | 352 kts | 304° |
| 2026-05-03 23:53 | 26.48790 | -80.55713 | 17170 ft | 362 kts | 316° |
| 2026-05-03 23:53 | 26.50983 | -80.57169 | 17729 ft | 374 kts | 330° |
| 2026-05-03 23:53 | 26.53499 | -80.58082 | 18266 ft | 384 kts | 338° |
| 2026-05-03 23:54 | 26.56085 | -80.58891 | 18748 ft | 387 kts | 337° |
| 2026-05-03 23:54 | 26.58692 | -80.59708 | 19238 ft | 390 kts | 336° |
| 2026-05-03 23:54 | 26.61313 | -80.60536 | 19743 ft | 393 kts | 336° |
| 2026-05-03 23:54 | 26.63951 | -80.61375 | 20230 ft | 396 kts | 336° |
| 2026-05-03 23:55 | 26.66611 | -80.62221 | 20714 ft | 399 kts | 336° |
| 2026-05-03 23:55 | 26.69294 | -80.63075 | 21198 ft | 402 kts | 336° |
| 2026-05-03 23:55 | 26.71992 | -80.63937 | 21676 ft | 405 kts | 336° |
| 2026-05-03 23:55 | 26.74713 | -80.64808 | 21971 ft | 408 kts | 336° |
| 2026-05-03 23:56 | 26.77441 | -80.65680 | 22037 ft | 408 kts | 336° |
| 2026-05-03 23:56 | 26.80139 | -80.66540 | 22046 ft | 408 kts | 336° |
| 2026-05-03 23:56 | 26.82867 | -80.67408 | 22045 ft | 408 kts | 336° |
| 2026-05-03 23:56 | 26.85603 | -80.68259 | 22048 ft | 408 kts | 336° |
| 2026-05-03 23:57 | 26.88340 | -80.69106 | 22050 ft | 408 kts | 335° |
| 2026-05-03 23:57 | 26.91058 | -80.70003 | 22045 ft | 406 kts | 334° |
| 2026-05-03 23:57 | 26.93748 | -80.70959 | 22049 ft | 405 kts | 333° |
| 2026-05-03 23:57 | 26.96425 | -80.71962 | 22049 ft | 404 kts | 333° |
| 2026-05-03 23:58 | 26.99086 | -80.72986 | 22050 ft | 404 kts | 332° |
| 2026-05-03 23:58 | 27.01748 | -80.74019 | 22050 ft | 404 kts | 332° |
| 2026-05-03 23:58 | 27.04407 | -80.75047 | 22051 ft | 404 kts | 332° |
| 2026-05-03 23:58 | 27.07069 | -80.76065 | 22053 ft | 404 kts | 333° |
| 2026-05-03 23:59 | 27.09738 | -80.77076 | 22054 ft | 404 kts | 333° |
| 2026-05-03 23:59 | 27.12405 | -80.78087 | 22054 ft | 404 kts | 333° |
| 2026-05-03 23:59 | 27.15072 | -80.79098 | 22054 ft | 405 kts | 333° |
| 2026-05-03 23:59 | 27.17741 | -80.80109 | 22081 ft | 405 kts | 333° |
| 2026-05-04 00:00 | 27.20404 | -80.81118 | 22050 ft | 404 kts | 333° |
| 2026-05-04 00:00 | 27.23068 | -80.82131 | 22054 ft | 404 kts | 333° |
| 2026-05-04 00:00 | 27.25687 | -80.83130 | 22054 ft | 403 kts | 333° |
| 2026-05-04 00:00 | 27.28376 | -80.84156 | 22054 ft | 403 kts | 333° |
| 2026-05-04 00:01 | 27.31040 | -80.85169 | 22056 ft | 403 kts | 333° |
| 2026-05-04 00:01 | 27.33696 | -80.86180 | 22054 ft | 403 kts | 332° |
| 2026-05-04 00:01 | 27.36345 | -80.87214 | 22053 ft | 402 kts | 332° |
| 2026-05-04 00:01 | 27.38944 | -80.88243 | 21532 ft | 392 kts | 332° |
| 2026-05-04 00:02 | 27.41501 | -80.89264 | 20699 ft | 387 kts | 332° |
| 2026-05-04 00:02 | 27.44029 | -80.90279 | 19887 ft | 382 kts | 332° |
| 2026-05-04 00:02 | 27.46515 | -80.91281 | 19095 ft | 377 kts | 332° |
| 2026-05-04 00:02 | 27.48964 | -80.92264 | 18432 ft | 368 kts | 333° |
| 2026-05-04 00:03 | 27.50540 | -80.92890 | 18109 ft | 359 kts | 333° |
| 2026-05-04 00:03 | 27.52850 | -80.93804 | 17633 ft | 344 kts | 333° |
| 2026-05-04 00:03 | 27.55773 | -80.94955 | 17030 ft | 328 kts | 333° |
| 2026-05-04 00:03 | 27.57890 | -80.95796 | 16612 ft | 317 kts | 332° |
| 2026-05-04 00:04 | 27.59944 | -80.96618 | 16218 ft | 312 kts | 332° |
| 2026-05-04 00:04 | 27.61987 | -80.97446 | 15821 ft | 312 kts | 333° |
| 2026-05-04 00:04 | 27.63338 | -80.97993 | 15562 ft | 311 kts | 333° |
| 2026-05-04 00:04 | 27.65380 | -80.98815 | 15180 ft | 312 kts | 333° |
| 2026-05-04 00:05 | 27.67431 | -80.99638 | 14785 ft | 313 kts | 334° |
| 2026-05-04 00:05 | 27.69486 | -81.00463 | 14393 ft | 314 kts | 334° |
| 2026-05-04 00:05 | 27.71544 | -81.01291 | 13997 ft | 315 kts | 334° |
| 2026-05-04 00:05 | 27.73609 | -81.02119 | 13567 ft | 315 kts | 334° |
| 2026-05-04 00:06 | 27.75678 | -81.02946 | 13161 ft | 315 kts | 335° |
| 2026-05-04 00:06 | 27.77737 | -81.03770 | 12773 ft | 314 kts | 335° |
| 2026-05-04 00:06 | 27.79801 | -81.04597 | 12371 ft | 314 kts | 335° |
| 2026-05-04 00:06 | 27.81850 | -81.05418 | 11974 ft | 313 kts | 335° |
| 2026-05-04 00:07 | 27.83890 | -81.06241 | 11585 ft | 312 kts | 335° |
| 2026-05-04 00:07 | 27.85936 | -81.07066 | 11191 ft | 311 kts | 335° |
| 2026-05-04 00:07 | 27.87977 | -81.07886 | 10798 ft | 311 kts | 335° |
| 2026-05-04 00:07 | 27.90015 | -81.08701 | 10405 ft | 310 kts | 335° |
| 2026-05-04 00:08 | 27.92043 | -81.09514 | 10113 ft | 306 kts | 335° |
| 2026-05-04 00:08 | 27.93997 | -81.10350 | 9992 ft | 295 kts | 334° |
| 2026-05-04 00:08 | 27.95883 | -81.11204 | 9663 ft | 292 kts | 333° |
| 2026-05-04 00:08 | 27.97767 | -81.12082 | 9311 ft | 290 kts | 333° |
| 2026-05-04 00:09 | 27.99629 | -81.12952 | 8968 ft | 289 kts | 334° |
| 2026-05-04 00:09 | 28.01483 | -81.13815 | 8616 ft | 288 kts | 334° |
| 2026-05-04 00:09 | 28.03323 | -81.14667 | 8137 ft | 284 kts | 335° |
| 2026-05-04 00:09 | 28.05152 | -81.15505 | 7513 ft | 283 kts | 335° |
| 2026-05-04 00:10 | 28.06965 | -81.16349 | 6907 ft | 280 kts | 335° |
| 2026-05-04 00:10 | 28.08734 | -81.17275 | 6417 ft | 275 kts | 334° |
| 2026-05-04 00:10 | 28.10374 | -81.18194 | 6316 ft | 256 kts | 333° |
| 2026-05-04 00:10 | 28.11900 | -81.19071 | 6244 ft | 241 kts | 333° |
| 2026-05-04 00:11 | 28.13385 | -81.19933 | 6006 ft | 238 kts | 333° |
| 2026-05-04 00:11 | 28.14845 | -81.20797 | 5711 ft | 236 kts | 332° |
| 2026-05-04 00:11 | 28.16293 | -81.21674 | 5397 ft | 236 kts | 332° |
| 2026-05-04 00:11 | 28.17736 | -81.22550 | 5088 ft | 234 kts | 332° |
| 2026-05-04 00:12 | 28.19151 | -81.23408 | 4767 ft | 226 kts | 332° |
| 2026-05-04 00:12 | 28.20519 | -81.24236 | 4460 ft | 218 kts | 333° |
| 2026-05-04 00:12 | 28.21835 | -81.25031 | 4173 ft | 210 kts | 335° |
| 2026-05-04 00:12 | 28.23101 | -81.25796 | 3933 ft | 205 kts | 336° |
| 2026-05-04 00:13 | 28.24352 | -81.26549 | 3617 ft | 199 kts | 335° |
| 2026-05-04 00:13 | 28.25547 | -81.27268 | 3357 ft | 190 kts | 336° |
| 2026-05-04 00:13 | 28.26713 | -81.27902 | 3097 ft | 180 kts | 347° |
| 2026-05-04 00:13 | 28.27899 | -81.28089 | 2871 ft | 167 kts | 4° |
| 2026-05-04 00:14 | 28.29037 | -81.28093 | 2656 ft | 159 kts | 4° |
| 2026-05-04 00:14 | 28.30120 | -81.28105 | 2436 ft | 153 kts | 5° |
| 2026-05-04 00:14 | 28.31204 | -81.28117 | 2232 ft | 159 kts | 6° |
| 2026-05-04 00:14 | 28.32305 | -81.28127 | 2022 ft | 157 kts | 6° |
| 2026-05-04 00:15 | 28.33393 | -81.28137 | 1796 ft | 155 kts | 6° |
| 2026-05-04 00:15 | 28.34466 | -81.28148 | 1585 ft | 155 kts | 5° |
| 2026-05-04 00:15 | 28.35529 | -81.28161 | 1371 ft | 148 kts | 5° |
| 2026-05-04 00:15 | 28.36520 | -81.28196 | 1201 ft | 142 kts | 1° |
| 2026-05-04 00:16 | 28.37510 | -81.28230 | 971 ft | 141 kts | 4° |
| 2026-05-04 00:16 | 28.38484 | -81.28196 | 740 ft | 140 kts | 6° |
| 2026-05-04 00:16 | 28.39464 | -81.28224 | 590 ft | 144 kts | 359° |
| 2026-05-04 00:16 | 28.40447 | -81.28220 | 403 ft | 139 kts | 6° |
| 2026-05-04 00:17 | 28.41426 | -81.28236 | 241 ft | 141 kts | 4° |
| 2026-05-04 00:17 | 28.42390 | -81.28239 | 114 ft | 131 kts | 2° |
| 2026-05-04 00:17 | 28.43152 | -81.28246 | 102 ft | 88 kts | 360° |
| 2026-05-04 00:17 | 28.43635 | -81.28247 | 104 ft | 47 kts | 360° |
| 2026-05-04 00:18 | 28.43843 | -81.28312 | 107 ft | 25 kts | 317° |
| 2026-05-04 00:18 | 28.43877 | -81.28404 | 108 ft | 12 kts | 272° |
| 2026-05-04 00:18 | 28.43876 | -81.28516 | 107 ft | 18 kts | 269° |
| 2026-05-04 00:18 | 28.43874 | -81.28675 | 107 ft | 21 kts | 269° |
| 2026-05-04 00:19 | 28.43873 | -81.28847 | 107 ft | 23 kts | 270° |
| 2026-05-04 00:19 | 28.43871 | -81.29035 | 107 ft | 24 kts | 268° |
| 2026-05-04 00:19 | 28.43870 | -81.29169 | 100 ft | 0 kts | 270° |
| 2026-05-04 00:20 | 28.43859 | -81.29242 | 100 ft | 13 kts | 237° |
| 2026-05-04 00:20 | 28.43774 | -81.29263 | 102 ft | 13 kts | 177° |
| 2026-05-04 00:20 | 28.43681 | -81.29261 | 102 ft | 14 kts | 180° |
| 2026-05-04 00:21 | 28.43583 | -81.29266 | 103 ft | 14 kts | 197° |
| 2026-05-04 00:21 | 28.43551 | -81.29329 | 104 ft | 9 kts | 267° |
| 2026-05-04 00:21 | 28.43551 | -81.29415 | 107 ft | 16 kts | 271° |
| 2026-05-04 00:21 | 28.43552 | -81.29560 | 105 ft | 20 kts | 268° |
| 2026-05-04 00:22 | 28.43549 | -81.29707 | 103 ft | 15 kts | 270° |
| 2026-05-04 00:22 | 28.43558 | -81.29788 | 103 ft | 7 kts | 308° |
| 2026-05-04 00:22 | 28.43626 | -81.29807 | 104 ft | 13 kts | 2° |
| 2026-05-04 00:22 | 28.43725 | -81.29814 | 104 ft | 16 kts | 349° |
| 2026-05-04 00:23 | 28.43829 | -81.29870 | 103 ft | 18 kts | 319° |
| 2026-05-04 00:23 | 28.43892 | -81.29995 | 104 ft | 19 kts | 281° |
| 2026-05-04 00:23 | 28.43904 | -81.30161 | 102 ft | 23 kts | 273° |
| 2026-05-04 00:23 | 28.43913 | -81.30338 | 100 ft | 24 kts | 273° |
| 2026-05-04 00:24 | 28.43921 | -81.30487 | 100 ft | 11 kts | 274° |
| 2026-05-04 00:24 | 28.43927 | -81.30622 | 117 ft | 34 kts | 273° |
| 2026-05-04 00:24 | 28.43939 | -81.30820 | 122 ft | 0 kts | 274° |
| 2026-05-04 00:24 | 28.43940 | -81.30831 | 125 ft | 8 kts | 274° |
| 2026-05-04 00:25 | 28.43945 | -81.31027 | 121 ft | 34 kts | 269° |
| 2026-05-04 00:25 | 28.43932 | -81.31316 | 101 ft | 38 kts | 266° |
| 2026-05-04 00:25 | 28.43924 | -81.31546 | 102 ft | 27 kts | 270° |
| 2026-05-04 00:25 | 28.43912 | -81.31678 | 103 ft | 10 kts | 231° |
| 2026-05-04 00:26 | 28.43845 | -81.31687 | 105 ft | 11 kts | 169° |
| 2026-05-04 00:26 | 28.43770 | -81.31646 | 104 ft | 14 kts | 145° |
| 2026-05-04 00:26 | 28.43707 | -81.31603 | 102 ft | 11 kts | 155° |
| 2026-05-04 00:26 | 28.43650 | -81.31574 | 102 ft | 0 kts | 146° |
| 2026-05-04 00:27 | 28.43642 | -81.31568 | 102 ft | 3 kts | 144° |
| 2026-05-04 00:27 | 28.43622 | -81.31553 | 102 ft | 3 kts | 148° |
| 2026-05-04 00:27 | 28.43621 | -81.31552 | 102 ft | 0 kts | 148° |